Time;durP1;ratioP1;P1;durP2;ratioP2;P2;SDS_P1;SDS_P2;PMS_P1;PMS_P2;Temp;Humidity;BMP_temperature;BMP_pressure;BME280_temperature;BME280_humidity;BME280_pressure;Samples;Min_cycle;Max_cycle;Signal;HPM_P1;HPM_P2
2022/03/26 00:01:53;;;;;;;31.70;10.82;;;;;;;7.52;84.89;102863.16;6290184;28;20127;-67
2022/03/26 00:04:55;;;;;;;29.15;11.23;;;;;;;7.46;85.75;102862.34;6283893;28;20051;-69
2022/03/26 00:07:56;;;;;;;26.67;9.68;;;;;;;7.36;86.02;102857.19;6293495;28;20044;-70
2022/03/26 00:10:57;;;;;;;31.52;10.48;;;;;;;7.30;86.67;102857.19;6296228;28;20078;-69
2022/03/26 00:14:00;;;;;;;36.15;11.52;;;;;;;7.23;87.60;102860.75;6296876;28;20044;-69
2022/03/26 00:17:01;;;;;;;32.45;10.82;;;;;;;7.20;87.82;102865.97;6291405;28;20482;-70
2022/03/26 00:20:04;;;;;;;27.25;10.48;;;;;;;7.17;88.24;102865.13;6285888;28;20052;-68
2022/03/26 00:23:05;;;;;;;31.45;11.85;;;;;;;7.14;89.04;102862.53;6296209;28;20045;-67
2022/03/26 00:26:07;;;;;;;32.50;11.00;;;;;;;7.04;89.63;102862.59;6296902;28;20056;-68
2022/03/26 00:29:10;;;;;;;36.42;12.43;;;;;;;6.93;89.71;102858.28;6284928;28;20488;-70
2022/03/26 00:32:12;;;;;;;33.33;11.23;;;;;;;6.90;90.48;102856.53;6295754;28;20515;-68
2022/03/26 00:35:13;;;;;;;30.77;9.55;;;;;;;6.88;90.80;102860.91;6296561;28;20055;-68
2022/03/26 00:38:15;;;;;;;28.95;9.50;;;;;;;6.84;91.45;102852.19;6296381;28;20052;-68
2022/03/26 00:41:16;;;;;;;31.40;9.63;;;;;;;6.83;92.08;102860.06;6295801;28;20055;-69
2022/03/26 00:44:20;;;;;;;25.98;9.32;;;;;;;6.79;92.23;102855.72;6296427;28;20055;-68
2022/03/26 00:47:21;;;;;;;32.30;9.95;;;;;;;6.78;92.37;102848.75;6296389;28;20059;-68
2022/03/26 00:50:23;;;;;;;29.20;11.02;;;;;;;6.73;92.65;102851.38;6295657;28;20075;-69
2022/03/26 00:53:24;;;;;;;35.40;9.70;;;;;;;6.73;93.59;102848.78;6296333;28;20049;-68
2022/03/26 00:56:25;;;;;;;25.27;9.82;;;;;;;6.68;92.59;102853.16;6296144;28;20041;-68
2022/03/26 00:59:28;;;;;;;29.13;10.55;;;;;;;6.60;93.10;102858.38;6275545;28;20053;-68
2022/03/26 01:02:30;;;;;;;24.80;8.80;;;;;;;6.55;92.74;102854.91;6281081;28;20060;-68
2022/03/26 01:05:31;;;;;;;25.05;8.43;;;;;;;6.49;92.83;102854.03;6271372;28;20059;-68
2022/03/26 01:08:32;;;;;;;31.17;10.13;;;;;;;6.44;92.68;102842.75;6271088;28;20053;-69
2022/03/26 01:11:34;;;;;;;22.02;8.38;;;;;;;6.39;92.41;102847.97;6270668;28;20053;-69
2022/03/26 01:14:37;;;;;;;20.30;8.77;;;;;;;6.33;93.31;102850.63;6271216;28;20052;-68
2022/03/26 01:17:39;;;;;;;22.48;9.35;;;;;;;6.27;93.84;102848.91;6270916;28;20041;-68
2022/03/26 01:20:40;;;;;;;23.08;8.82;;;;;;;6.25;94.91;102848.00;6270486;28;20053;-69
2022/03/26 01:23:43;;;;;;;26.08;10.20;;;;;;;6.19;95.17;102848.03;6271874;28;20049;-69
2022/03/26 01:26:44;;;;;;;28.95;10.40;;;;;;;6.14;95.12;102847.16;6287461;28;20040;-68
2022/03/26 01:29:47;;;;;;;22.60;8.90;;;;;;;6.07;96.01;102850.63;6300498;28;20048;-69
2022/03/26 01:32:49;;;;;;;29.92;8.32;;;;;;;6.03;96.36;102843.69;6300663;28;20048;-69
2022/03/26 01:35:50;;;;;;;25.00;9.25;;;;;;;5.97;96.95;102851.53;6300479;28;20511;-69
2022/03/26 01:38:52;;;;;;;24.77;8.88;;;;;;;5.93;97.92;102849.78;6300583;28;20045;-68
2022/03/26 01:41:53;;;;;;;25.65;9.35;;;;;;;5.92;98.14;102841.09;6299864;28;20052;-69
2022/03/26 01:44:56;;;;;;;25.58;7.32;;;;;;;5.97;98.23;102843.69;6300379;28;20057;-68
2022/03/26 01:47:58;;;;;;;26.50;9.15;;;;;;;6.03;96.78;102843.69;6300283;28;20492;-68
2022/03/26 01:51:14;;;;;;;27.77;9.48;;;;;;;5.98;97.65;102840.22;6299645;28;20051;-68
2022/03/26 01:54:16;;;;;;;26.80;11.05;;;;;;;5.88;96.86;102841.06;6300326;28;20139;-69
2022/03/26 01:57:17;;;;;;;36.90;11.40;;;;;;;5.80;97.24;102843.66;6300008;28;20063;-69
2022/03/26 02:00:20;;;;;;;25.80;9.27;;;;;;;5.77;98.98;102841.06;6299568;28;20055;-68
2022/03/26 02:03:21;;;;;;;27.80;10.10;;;;;;;5.79;98.86;102840.19;6299966;28;20139;-68
2022/03/26 02:06:25;;;;;;;23.70;8.27;;;;;;;5.85;98.33;102834.94;6300101;28;20049;-68
2022/03/26 02:09:26;;;;;;;28.08;10.55;;;;;;;5.89;97.79;102841.03;6299674;28;20049;-68
2022/03/26 02:12:30;;;;;;;20.45;8.93;;;;;;;5.88;98.10;102841.91;6299306;28;20049;-69
2022/03/26 02:15:33;;;;;;;22.77;8.95;;;;;;;5.84;98.31;102840.19;6299623;28;20060;-69
2022/03/26 02:18:34;;;;;;;27.70;9.52;;;;;;;5.88;97.60;102834.09;6299646;28;20045;-68
2022/03/26 02:21:37;;;;;;;22.85;9.88;;;;;;;5.87;96.87;102834.97;6298928;28;20104;-68
2022/03/26 02:24:39;;;;;;;38.60;9.85;;;;;;;5.82;97.29;102829.75;6299364;28;20397;-69
2022/03/26 02:27:40;;;;;;;29.33;10.38;;;;;;;5.75;97.57;102829.75;6299518;28;20044;-68
2022/03/26 02:30:41;;;;;;;22.20;9.23;;;;;;;5.65;98.41;102831.47;6298505;28;20508;-68
2022/03/26 02:33:43;;;;;;;27.77;8.80;;;;;;;5.52;99.20;102830.59;6299609;28;20055;-68
2022/03/26 02:36:46;;;;;;;32.53;10.30;;;;;;;5.44;99.64;102823.63;6297622;28;20055;-69
2022/03/26 02:39:47;;;;;;;34.22;11.40;;;;;;;5.39;100.00;102814.94;6299070;28;20072;-69
2022/03/26 02:42:49;;;;;;;30.48;10.20;;;;;;;5.36;100.00;102818.41;6298527;28;20052;-69
2022/03/26 02:45:50;;;;;;;32.50;9.45;;;;;;;5.31;100.00;102808.00;6299264;28;20488;-68
2022/03/26 02:48:51;;;;;;;26.73;10.35;;;;;;;5.23;100.00;102809.69;6298866;28;20075;-69
2022/03/26 02:51:54;;;;;;;29.65;10.48;;;;;;;5.20;100.00;102809.69;6298031;28;20048;-68
2022/03/26 02:54:55;;;;;;;28.45;9.60;;;;;;;5.17;100.00;102811.41;6299040;28;20131;-68
2022/03/26 02:57:56;;;;;;;33.25;12.27;;;;;;;5.15;100.00;102808.81;6298416;28;20507;-69
2022/03/26 03:00:58;;;;;;;26.55;10.68;;;;;;;5.15;100.00;102792.31;6298194;28;20050;-68
2022/03/26 03:03:59;;;;;;;33.97;11.68;;;;;;;5.20;100.00;102796.66;6298241;28;20052;-68
2022/03/26 03:07:02;;;;;;;22.02;8.93;;;;;;;5.19;100.00;102788.84;6298413;28;20639;-68
2022/03/26 03:10:05;;;;;;;38.30;12.65;;;;;;;5.21;100.00;102787.09;6297759;28;20061;-68
2022/03/26 03:13:06;;;;;;;30.08;11.27;;;;;;;5.23;100.00;102781.03;6297891;28;20055;-68
2022/03/26 03:16:07;;;;;;;31.25;9.70;;;;;;;5.17;100.00;102798.38;6297931;28;20051;-68
2022/03/26 03:19:09;;;;;;;34.88;11.13;;;;;;;5.01;100.00;102793.13;6297453;28;20049;-69
2022/03/26 03:22:12;;;;;;;37.00;12.35;;;;;;;5.03;100.00;102798.34;6297024;28;20044;-68
2022/03/26 03:25:16;;;;;;;36.30;11.07;;;;;;;5.12;100.00;102790.56;6297965;28;20049;-68
2022/03/26 03:28:17;;;;;;;37.80;11.80;;;;;;;5.14;100.00;102794.03;6297483;28;20123;-68
2022/03/26 03:31:19;;;;;;;29.17;10.98;;;;;;;5.09;100.00;102798.38;6296932;28;20052;-69
2022/03/26 03:34:20;;;;;;;32.45;10.88;;;;;;;5.04;100.00;102803.59;6297962;28;20052;-68
2022/03/26 03:37:23;;;;;;;28.73;10.45;;;;;;;5.03;100.00;102794.00;6297507;28;20511;-68
2022/03/26 03:40:24;;;;;;;30.40;11.38;;;;;;;5.07;100.00;102797.50;6297112;28;20621;-68
2022/03/26 03:43:26;;;;;;;29.67;11.52;;;;;;;5.12;100.00;102800.09;6297247;28;20048;-68
2022/03/26 03:46:27;;;;;;;33.75;10.18;;;;;;;5.13;100.00;102794.88;6297312;28;20066;-68
2022/03/26 03:49:31;;;;;;;28.15;10.98;;;;;;;5.16;100.00;102794.03;6297321;28;20519;-68
2022/03/26 03:52:34;;;;;;;27.35;10.55;;;;;;;5.15;100.00;102795.78;6296969;28;20198;-68
2022/03/26 03:55:35;;;;;;;31.75;11.90;;;;;;;4.98;100.00;102794.88;6297393;28;20411;-68
2022/03/26 03:58:36;;;;;;;36.55;11.88;;;;;;;4.89;100.00;102792.22;6297122;28;20045;-68
2022/03/26 04:01:38;;;;;;;32.22;9.80;;;;;;;4.84;100.00;102794.81;6296663;28;20059;-68
2022/03/26 04:04:40;;;;;;;31.85;11.15;;;;;;;4.82;100.00;102780.94;6296967;28;20048;-68
2022/03/26 04:07:44;;;;;;;25.38;10.95;;;;;;;4.70;100.00;102784.34;6297072;28;20051;-68
2022/03/26 04:10:45;;;;;;;22.75;10.05;;;;;;;4.68;100.00;102780.00;6296265;28;20052;-68
2022/03/26 04:13:49;;;;;;;39.05;10.75;;;;;;;4.71;100.00;102790.44;6297071;28;20048;-69
2022/03/26 04:16:50;;;;;;;32.47;12.23;;;;;;;4.71;100.00;102798.25;6296471;28;20052;-68
2022/03/26 04:19:52;;;;;;;35.65;11.75;;;;;;;4.74;100.00;102799.13;6296559;28;20082;-69
2022/03/26 04:22:55;;;;;;;30.38;10.75;;;;;;;4.70;100.00;102792.16;6296375;28;20055;-68
2022/03/26 04:25:56;;;;;;;31.50;11.70;;;;;;;4.57;100.00;102801.66;6296830;28;20052;-68
2022/03/26 04:28:57;;;;;;;40.97;11.27;;;;;;;4.55;100.00;102798.19;6296533;28;20051;-68
2022/03/26 04:31:59;;;;;;;31.98;11.68;;;;;;;4.53;100.00;102793.81;6296099;28;20052;-68
2022/03/26 04:35:01;;;;;;;29.05;9.75;;;;;;;4.64;100.00;102802.56;6296670;28;20045;-68
2022/03/26 04:38:04;;;;;;;29.95;10.30;;;;;;;4.74;100.00;102811.28;6296256;28;20051;-68
2022/03/26 04:41:05;;;;;;;30.60;10.27;;;;;;;4.75;100.00;102805.19;6296030;28;20056;-68
2022/03/26 04:44:07;;;;;;;30.77;10.23;;;;;;;4.78;100.00;102807.84;6296464;28;20071;-68
2022/03/26 04:47:08;;;;;;;37.58;13.15;;;;;;;4.75;100.00;102811.28;6296516;28;20045;-69
2022/03/26 04:50:11;;;;;;;37.38;12.00;;;;;;;4.67;100.00;102812.09;6296170;28;20063;-68
2022/03/26 04:53:14;;;;;;;34.10;12.52;;;;;;;4.68;100.00;102813.84;6296033;28;20056;-68
2022/03/26 04:56:15;;;;;;;38.25;11.77;;;;;;;4.59;100.00;102809.50;6296287;28;20045;-69
2022/03/26 04:59:17;;;;;;;39.28;12.90;;;;;;;4.62;100.00;102811.22;6295457;28;20518;-68
2022/03/26 05:02:18;;;;;;;36.95;12.88;;;;;;;4.60;100.00;102818.16;6295522;28;20048;-69
2022/03/26 05:05:19;;;;;;;36.42;12.77;;;;;;;4.45;100.00;102818.94;6296250;28;20052;-68
2022/03/26 05:08:22;;;;;;;36.20;12.45;;;;;;;4.40;100.00;102820.66;6296281;28;20048;-68
2022/03/26 05:11:23;;;;;;;37.97;12.82;;;;;;;4.33;100.00;102822.38;6295262;28;20079;-68
2022/03/26 05:14:25;;;;;;;33.75;11.82;;;;;;;4.31;100.00;102827.56;6296183;28;20048;-68
2022/03/26 05:17:26;;;;;;;41.15;12.15;;;;;;;4.38;100.00;102819.78;6295362;28;20049;-68
2022/03/26 05:20:28;;;;;;;28.23;11.70;;;;;;;4.37;100.00;102833.66;6281491;28;20808;-68
2022/03/26 05:23:30;;;;;;;33.42;11.18;;;;;;;4.30;100.00;102831.00;6270989;28;20409;-68
2022/03/26 05:26:32;;;;;;;44.00;13.32;;;;;;;4.32;100.00;102831.03;6271132;28;20056;-68
2022/03/26 05:29:33;;;;;;;37.95;13.50;;;;;;;4.28;100.00;102843.16;6271082;28;20045;-68
2022/03/26 05:32:35;;;;;;;34.13;12.00;;;;;;;4.25;100.00;102847.47;6270320;28;20052;-68
2022/03/26 05:35:36;;;;;;;39.88;13.40;;;;;;;4.25;100.00;102839.66;6270893;28;20052;-68
2022/03/26 05:38:39;;;;;;;37.40;14.18;;;;;;;4.22;100.00;102844.81;6270909;28;20052;-67
2022/03/26 05:41:40;;;;;;;34.58;12.52;;;;;;;4.18;100.00;102843.97;6269492;28;20072;-67
2022/03/26 05:44:42;;;;;;;36.03;13.18;;;;;;;4.18;100.00;102850.88;6278468;28;20040;-68
2022/03/26 05:47:44;;;;;;;32.60;12.30;;;;;;;4.16;100.00;102848.28;6294692;28;20457;-68
2022/03/26 05:50:46;;;;;;;39.50;13.02;;;;;;;4.20;100.00;102856.97;6286729;28;20056;-67
2022/03/26 05:53:50;;;;;;;32.28;13.18;;;;;;;4.29;100.00;102844.88;6292727;28;20519;-67
2022/03/26 05:56:52;;;;;;;36.08;12.13;;;;;;;4.39;100.00;102856.22;6281342;28;20121;-68
2022/03/26 05:59:53;;;;;;;43.75;12.90;;;;;;;4.46;100.00;102852.81;6284348;28;20129;-68
2022/03/26 06:02:55;;;;;;;33.70;12.43;;;;;;;4.53;100.00;102854.56;6284161;28;20048;-68
2022/03/26 06:05:58;;;;;;;40.17;12.27;;;;;;;4.58;100.00;102852.84;6288089;28;20389;-68
2022/03/26 06:09:01;;;;;;;25.65;11.98;;;;;;;4.62;100.00;102864.16;6292421;28;20080;-68
2022/03/26 06:12:03;;;;;;;35.80;12.63;;;;;;;4.68;100.00;102855.50;6295304;28;20048;-68
2022/03/26 06:15:05;;;;;;;35.08;12.63;;;;;;;4.68;100.00;102856.41;6289192;28;20052;-68
2022/03/26 06:18:07;;;;;;;42.00;12.20;;;;;;;4.75;100.00;102865.09;6299422;28;20511;-67
2022/03/26 06:21:08;;;;;;;35.05;12.27;;;;;;;4.75;100.00;102862.50;6293924;28;20060;-68
2022/03/26 06:24:11;;;;;;;33.67;11.02;;;;;;;4.77;100.00;102876.41;6289652;28;20052;-67
2022/03/26 06:27:12;;;;;;;31.98;10.95;;;;;;;4.84;100.00;102865.16;6290566;28;20047;-68
2022/03/26 06:30:13;;;;;;;33.35;11.80;;;;;;;4.94;100.00;102864.31;6289088;28;20052;-68
2022/03/26 06:33:16;;;;;;;33.17;10.55;;;;;;;5.03;100.00;102871.31;6289763;28;20041;-68
2022/03/26 06:36:18;;;;;;;41.60;12.95;;;;;;;5.06;100.00;102869.59;6299286;28;20048;-67
2022/03/26 06:39:20;;;;;;;35.22;11.85;;;;;;;5.09;100.00;102879.16;6299258;28;20056;-67
2022/03/26 06:42:22;;;;;;;28.60;10.57;;;;;;;5.06;100.00;102873.94;6289734;28;20041;-68
2022/03/26 06:45:23;;;;;;;42.30;12.88;;;;;;;5.17;100.00;102877.44;6299300;28;20488;-67
2022/03/26 06:48:24;;;;;;;33.05;12.07;;;;;;;5.20;100.00;102877.47;6298960;28;20052;-68
2022/03/26 06:51:26;;;;;;;43.85;13.40;;;;;;;5.30;100.00;102878.34;6298602;28;20075;-68
2022/03/26 06:54:28;;;;;;;32.95;10.60;;;;;;;5.35;100.00;102879.22;6299170;28;20423;-67
2022/03/26 06:57:30;;;;;;;32.28;12.05;;;;;;;5.46;100.00;102881.88;6298560;28;20041;-68
2022/03/26 07:00:31;;;;;;;38.28;12.13;;;;;;;5.54;100.00;102873.22;6298135;28;20044;-68
2022/03/26 07:03:32;;;;;;;33.58;11.90;;;;;;;5.60;100.00;102881.03;6298610;28;20056;-68
2022/03/26 07:06:34;;;;;;;31.92;13.02;;;;;;;5.65;100.00;102878.44;6294648;28;20182;-68
2022/03/26 07:09:37;;;;;;;35.40;12.13;;;;;;;5.76;100.00;102878.44;6292126;28;20041;-68
2022/03/26 07:12:38;;;;;;;30.20;11.75;;;;;;;5.94;100.00;102873.25;6297766;28;20510;-68
2022/03/26 07:15:39;;;;;;;39.22;13.07;;;;;;;6.07;100.00;102867.16;6298217;28;20055;-68
2022/03/26 07:18:41;;;;;;;34.17;13.23;;;;;;;6.21;100.00;102861.94;6298253;28;20048;-68
2022/03/26 07:21:42;;;;;;;38.45;13.13;;;;;;;6.37;100.00;102868.03;6296803;28;20048;-68
2022/03/26 07:24:45;;;;;;;40.97;12.43;;;;;;;6.48;100.00;102874.06;6298482;28;20411;-68
2022/03/26 07:27:46;;;;;;;45.45;14.70;;;;;;;6.63;100.00;102882.75;6298072;28;20055;-68
2022/03/26 07:30:48;;;;;;;36.28;13.15;;;;;;;6.73;100.00;102881.88;6297126;28;20056;-68
2022/03/26 07:33:49;;;;;;;40.63;13.82;;;;;;;6.82;100.00;102881.84;6297973;28;20431;-68
2022/03/26 07:36:51;;;;;;;36.53;12.57;;;;;;;6.91;100.00;102887.03;6297752;28;20411;-68
2022/03/26 07:39:53;;;;;;;34.97;11.68;;;;;;;6.98;100.00;102887.88;6297431;28;20047;-68
2022/03/26 07:42:55;;;;;;;45.10;14.10;;;;;;;7.04;100.00;102888.72;6277744;28;20064;-69
2022/03/26 07:45:56;;;;;;;38.25;12.88;;;;;;;7.17;100.00;102888.66;6285974;28;20051;-68
2022/03/26 07:48:57;;;;;;;36.30;14.45;;;;;;;7.30;100.00;102887.72;6286225;28;20041;-68
2022/03/26 07:51:59;;;;;;;44.38;13.60;;;;;;;7.43;100.00;102896.38;6289111;28;20057;-69
2022/03/26 07:55:01;;;;;;;39.10;13.00;;;;;;;7.56;100.00;102898.91;6286177;28;20051;-68
2022/03/26 07:58:03;;;;;;;38.30;12.90;;;;;;;7.64;100.00;102898.88;6297314;28;20075;-68
2022/03/26 08:01:05;;;;;;;50.08;13.30;;;;;;;7.75;99.28;102904.03;6296402;28;20519;-68
2022/03/26 08:04:06;;;;;;;38.80;13.27;;;;;;;7.87;98.85;102898.72;6297048;28;20415;-69
2022/03/26 08:07:07;;;;;;;38.85;11.80;;;;;;;8.05;98.25;102895.94;6293838;28;20044;-68
2022/03/26 08:10:10;;;;;;;43.53;13.13;;;;;;;8.15;98.01;102891.50;6288321;28;20040;-69
2022/03/26 08:13:11;;;;;;;41.40;11.60;;;;;;;8.32;95.58;102897.44;6296807;28;20492;-68
2022/03/26 08:16:13;;;;;;;27.40;10.60;;;;;;;8.55;93.25;102896.38;6296693;28;20056;-69
2022/03/26 08:19:14;;;;;;;27.75;9.82;;;;;;;8.94;87.13;102899.44;6296720;28;20044;-68
2022/03/26 08:22:15;;;;;;;27.42;8.90;;;;;;;9.16;83.62;102903.53;6291937;28;20052;-69
2022/03/26 08:26:19;;;;;;;28.58;8.93;;;;;;;9.28;82.83;102908.63;6288069;28;20040;-69
2022/03/26 08:28:40;;;;;;;29.85;9.60;;;;;;;9.45;80.79;102897.91;6296153;28;20473;-69
2022/03/26 08:31:41;;;;;;;27.67;9.73;;;;;;;9.55;79.89;102894.25;6296171;28;20134;-69
2022/03/26 08:34:43;;;;;;;29.35;10.57;;;;;;;9.60;80.25;102894.19;6296535;28;20049;-69
2022/03/26 08:37:44;;;;;;;33.85;10.10;;;;;;;9.67;79.90;102898.44;6296533;28;20055;-69
2022/03/26 08:40:47;;;;;;;24.35;9.73;;;;;;;9.76;79.69;102892.19;6295730;28;20454;-69
2022/03/26 08:43:50;;;;;;;28.83;10.40;;;;;;;9.91;78.95;102897.22;6295862;28;20480;-68
2022/03/26 08:46:51;;;;;;;36.28;10.95;;;;;;;9.99;78.82;102889.19;6296053;28;20461;-69
2022/03/26 08:49:53;;;;;;;35.78;11.32;;;;;;;10.09;77.31;102898.69;6295807;28;20067;-68
2022/03/26 08:52:54;;;;;;;30.83;11.93;;;;;;;10.14;78.32;102892.44;6295862;28;20439;-68
2022/03/26 08:55:57;;;;;;;29.40;10.80;;;;;;;10.29;78.08;102887.84;6296046;28;20090;-68
2022/03/26 08:58:59;;;;;;;27.85;10.40;;;;;;;10.43;79.35;102883.22;6295985;28;20067;-68
2022/03/26 09:02:00;;;;;;;23.00;10.15;;;;;;;10.66;79.14;102878.38;6295395;28;20056;-68
2022/03/26 09:05:01;;;;;;;27.75;9.38;;;;;;;10.77;79.67;102883.44;6295968;28;20407;-69
2022/03/26 09:08:02;;;;;;;23.83;9.65;;;;;;;10.93;79.21;102884.84;6295971;28;20051;-68
2022/03/26 09:11:05;;;;;;;25.38;10.93;;;;;;;11.11;78.33;102882.75;6295589;28;20067;-69
2022/03/26 09:14:07;;;;;;;31.60;10.10;;;;;;;11.24;77.72;102878.09;6295996;28;20040;-68
2022/03/26 09:17:09;;;;;;;34.20;10.18;;;;;;;11.31;77.64;102884.94;6295968;28;20056;-69
2022/03/26 09:20:11;;;;;;;30.75;8.65;;;;;;;11.34;76.33;102883.09;6295795;28;20098;-69
2022/03/26 09:23:12;;;;;;;17.90;7.97;;;;;;;11.43;74.45;102882.03;6295306;28;20056;-69
2022/03/26 09:26:15;;;;;;;30.15;9.85;;;;;;;11.42;77.29;102888.19;6295887;28;20419;-69
2022/03/26 09:29:16;;;;;;;18.45;7.45;;;;;;;11.64;73.23;102886.81;6295716;28;20064;-70
2022/03/26 09:32:18;;;;;;;20.27;7.20;;;;;;;11.69;74.29;102886.69;6295360;28;20052;-70
2022/03/26 09:35:19;;;;;;;20.40;9.00;;;;;;;11.71;73.03;102889.28;6295875;28;20514;-71
2022/03/26 09:38:21;;;;;;;26.90;8.30;;;;;;;11.73;73.86;102884.88;6295679;28;20056;-71
2022/03/26 09:41:23;;;;;;;21.83;8.57;;;;;;;11.97;71.72;102884.28;6295012;28;20059;-70
2022/03/26 09:44:26;;;;;;;18.70;6.38;;;;;;;12.00;72.08;102878.97;6296079;28;20470;-71
2022/03/26 09:47:27;;;;;;;18.25;6.95;;;;;;;12.21;68.95;102877.53;6300224;28;20064;-71
2022/03/26 09:50:29;;;;;;;19.48;7.15;;;;;;;12.25;69.68;102873.03;6299429;28;20086;-70
2022/03/26 09:53:30;;;;;;;21.73;8.35;;;;;;;12.26;69.16;102866.84;6300454;28;20068;-71
2022/03/26 09:56:34;;;;;;;13.77;6.57;;;;;;;12.19;71.01;102882.84;6300018;28;20052;-74
2022/03/26 09:59:36;;;;;;;24.13;8.05;;;;;;;12.40;70.38;102876.16;6299792;28;20179;-70
2022/03/26 10:02:37;;;;;;;21.40;7.40;;;;;;;12.56;68.35;102870.44;6282641;28;20051;-70
2022/03/26 10:05:39;;;;;;;17.05;7.40;;;;;;;12.59;68.19;102865.97;6281426;28;20511;-71
2022/03/26 10:08:41;;;;;;;21.35;7.28;;;;;;;12.58;68.11;102868.63;6283526;28;20053;-71
2022/03/26 10:11:44;;;;;;;21.30;8.05;;;;;;;12.60;68.76;102862.41;6292716;28;20778;-71
2022/03/26 10:14:47;;;;;;;18.17;8.10;;;;;;;12.68;67.31;102873.63;6288951;28;20059;-70
2022/03/26 10:17:49;;;;;;;18.58;7.45;;;;;;;12.64;67.72;102861.41;6299177;28;20426;-71
2022/03/26 10:20:58;;;;;;;17.52;6.95;;;;;;;12.74;67.84;102863.81;6298806;28;20621;-71
2022/03/26 10:23:59;;;;;;;20.27;7.93;;;;;;;12.77;69.12;102856.66;6299885;28;20048;-72
2022/03/26 10:27:11;;;;;;;18.05;7.60;;;;;;;12.89;67.13;102860.72;6285561;28;20041;-72
2022/03/26 10:30:14;;;;;;;17.00;8.07;;;;;;;12.94;67.33;102854.41;6274104;28;20431;-72
2022/03/26 10:33:18;;;;;;;16.58;7.22;;;;;;;13.05;66.51;102853.22;6289837;28;20126;-70
2022/03/26 10:36:21;;;;;;;14.63;6.65;;;;;;;13.24;64.50;102867.63;6299537;28;20052;-74
2022/03/26 10:39:24;;;;;;;20.38;7.97;;;;;;;13.26;63.51;102862.28;6299191;28;20045;-75
2022/03/26 10:42:31;;;;;;;21.05;8.43;;;;;;;13.18;63.04;102847.53;6298451;28;20527;-72
2022/03/26 10:45:36;;;;;;;15.95;6.88;;;;;;;13.53;63.32;102850.00;6299348;28;20089;-72
2022/03/26 10:48:39;;;;;;;16.05;6.43;;;;;;;13.47;61.90;102850.19;6298758;28;20576;-71
2022/03/26 10:51:42;;;;;;;19.85;7.03;;;;;;;13.46;62.96;102851.97;6298362;28;20496;-69
2022/03/26 10:54:46;;;;;;;16.13;7.30;;;;;;;13.61;63.46;102847.97;6298740;28;20044;-70
2022/03/26 10:57:49;;;;;;;13.82;7.20;;;;;;;13.76;61.12;102847.47;6297568;28;20652;-70
2022/03/26 11:00:51;;;;;;;16.20;7.07;;;;;;;13.78;60.93;102842.16;6297879;28;20048;-70
2022/03/26 11:03:52;;;;;;;18.38;7.05;;;;;;;13.90;62.43;102844.38;6298681;28;20139;-70
2022/03/26 11:06:55;;;;;;;16.83;6.68;;;;;;;13.99;60.31;102833.50;6298520;28;20059;-70
2022/03/26 11:09:58;;;;;;;14.90;6.35;;;;;;;14.05;59.47;102835.91;6298283;28;20059;-70
2022/03/26 11:13:03;;;;;;;12.43;5.70;;;;;;;14.11;59.61;102830.41;6298369;28;20051;-77
2022/03/26 11:16:10;;;;;;;19.15;5.85;;;;;;;14.12;59.52;102831.28;6299072;28;20053;-78
2022/03/26 11:19:24;;;;;;;12.60;6.00;;;;;;;14.31;60.28;102834.16;6298525;28;20041;-77
2022/03/26 11:22:34;;;;;;;16.48;6.57;;;;;;;14.54;60.06;102836.88;6298250;28;20641;-76
2022/03/26 11:26:13;;;;;;;13.15;5.07;;;;;;;14.64;59.73;102840.03;6298257;28;20459;-70
2022/03/26 11:29:27;;;;;;;;;;;;;;;14.61;59.37;102832.19;6298493;28;20056;-70
2022/03/26 11:32:33;;;;;;;9.32;4.25;;;;;;;14.76;61.10;102846.63;6297394;28;19920;-71
2022/03/26 11:35:35;;;;;;;8.18;3.75;;;;;;;14.97;60.55;102835.25;6298184;28;20049;-70
2022/03/26 11:38:37;;;;;;;12.77;5.30;;;;;;;15.11;59.23;102834.72;6297704;28;20051;-70
2022/03/26 11:41:39;;;;;;;10.65;4.72;;;;;;;15.08;60.04;102833.06;6297264;28;20048;-70
2022/03/26 11:50:41;;;;;;;11.02;4.85;;;;;;;15.05;60.30;102821.72;6297744;28;20055;-70
2022/03/26 11:51:29;;;;;;;13.95;5.72;;;;;;;15.57;60.98;102825.78;6296818;28;20044;-70
2022/03/26 11:54:31;;;;;;;10.00;5.03;;;;;;;15.65;59.97;102812.25;6295578;28;20052;-69
2022/03/26 11:57:32;;;;;;;12.63;5.32;;;;;;;15.35;60.17;102833.75;6275469;28;20049;-68
2022/03/26 12:00:53;;;;;;;10.95;5.22;;;;;;;15.28;61.66;102816.38;6291489;28;20408;-68
2022/03/26 12:03:54;;;;;;;14.38;5.38;;;;;;;15.61;62.12;102822.09;6277083;28;20049;-68
2022/03/26 12:06:57;;;;;;;17.95;6.32;;;;;;;15.80;62.38;102816.91;6288382;28;20451;-69
2022/03/26 12:10:13;;;;;;;10.70;5.40;;;;;;;15.92;62.43;102815.53;6288621;28;20045;-69
2022/03/26 12:13:20;;;;;;;8.82;4.55;;;;;;;15.73;63.54;102812.81;6280010;28;20515;-69
2022/03/26 12:16:56;;;;;;;13.30;5.47;;;;;;;15.73;64.41;102810.16;6274343;28;20052;-68
2022/03/26 12:20:18;;;;;;;12.35;5.43;;;;;;;15.43;65.67;102815.75;6289760;28;20041;-69
2022/03/26 12:23:23;;;;;;;12.60;4.45;;;;;;;15.55;66.93;102798.50;6272058;28;20049;-69
2022/03/26 12:26:25;;;;;;;10.75;3.60;;;;;;;15.62;66.98;102799.94;6271929;28;20454;-69
2022/03/26 12:29:26;;;;;;;13.90;4.63;;;;;;;15.42;65.74;102798.13;6271938;28;20056;-69
2022/03/26 12:32:32;;;;;;;10.43;4.93;;;;;;;15.42;67.76;102789.31;6271361;28;20488;-69
2022/03/26 12:35:34;;;;;;;11.95;4.88;;;;;;;15.57;65.49;102788.69;6271984;28;20057;-69
2022/03/26 12:38:35;;;;;;;14.57;4.28;;;;;;;15.85;64.51;102782.25;6271567;28;20058;-69
2022/03/26 12:41:37;;;;;;;7.97;4.35;;;;;;;16.10;65.27;102779.41;6270975;28;20060;-71
2022/03/26 12:44:38;;;;;;;10.98;4.68;;;;;;;16.41;63.41;102785.06;6271642;28;20420;-72
2022/03/26 12:47:44;;;;;;;10.30;3.88;;;;;;;16.00;65.96;102778.09;6271869;28;20052;-72
2022/03/26 12:50:46;;;;;;;7.20;3.30;;;;;;;16.07;65.71;102780.38;6270895;28;20049;-72
2022/03/26 12:53:48;;;;;;;5.60;3.17;;;;;;;16.25;64.63;102791.97;6269304;28;20041;-72
2022/03/26 12:56:50;;;;;;;7.10;2.90;;;;;;;16.00;66.82;102771.00;6282279;28;20068;-71
2022/03/26 12:59:52;;;;;;;7.28;3.25;;;;;;;16.33;66.60;102773.06;6270913;28;20045;-72
2022/03/26 13:03:06;;;;;;;7.38;3.30;;;;;;;16.42;64.42;102772.66;6269392;28;20045;-71
2022/03/26 13:06:09;;;;;;;6.03;3.05;;;;;;;16.42;65.21;102770.00;6280750;28;20049;-72
2022/03/26 13:09:11;;;;;;;7.53;2.90;;;;;;;16.41;65.00;102771.78;6271287;28;20045;-72
2022/03/26 13:12:24;;;;;;;6.20;2.55;;;;;;;16.35;65.57;102765.88;6270659;28;20071;-72
2022/03/26 13:15:25;;;;;;;9.10;2.95;;;;;;;16.53;65.57;102769.50;6273041;28;20041;-72
2022/03/26 13:18:28;;;;;;;8.38;3.25;;;;;;;16.62;64.01;102764.66;6283403;28;20063;-71
2022/03/26 13:21:30;;;;;;;5.88;2.80;;;;;;;16.16;65.36;102761.41;6299384;28;20052;-71
2022/03/26 13:24:32;;;;;;;6.03;2.83;;;;;;;16.20;66.38;102756.84;6297688;28;21718;-71
2022/03/26 13:27:33;;;;;;;7.20;3.05;;;;;;;16.34;65.55;102758.88;6287890;28;20518;-71
2022/03/26 13:30:35;;;;;;;8.32;3.33;;;;;;;16.43;66.16;102766.41;6275254;28;20135;-72
2022/03/26 13:33:37;;;;;;;8.98;3.42;;;;;;;15.92;67.03;102759.84;6276228;28;20060;-71
2022/03/26 13:36:39;;;;;;;8.13;4.25;;;;;;;15.59;68.39;102768.28;6275835;28;20515;-71
2022/03/26 13:39:44;;;;;;;9.45;3.88;;;;;;;15.59;69.28;102756.84;6276097;28;20061;-71
2022/03/26 13:42:46;;;;;;;6.60;3.45;;;;;;;15.67;69.09;102752.97;6275121;28;20049;-73
2022/03/26 13:45:47;;;;;;;11.07;4.38;;;;;;;15.82;69.26;102750.56;6275640;28;20049;-71
2022/03/26 13:48:52;;;;;;;10.98;4.07;;;;;;;16.00;69.23;102755.06;6275716;28;20049;-71
2022/03/26 13:51:54;;;;;;;6.05;3.75;;;;;;;15.93;68.64;102759.78;6274860;28;20045;-71
2022/03/26 13:54:56;;;;;;;8.40;4.25;;;;;;;15.79;67.93;102759.50;6275609;28;20045;-70
2022/03/26 13:57:59;;;;;;;7.63;3.15;;;;;;;15.57;69.14;102756.00;6275264;28;20052;-72
2022/03/26 14:01:00;;;;;;;5.82;3.08;;;;;;;15.43;70.38;102753.94;6274838;28;20081;-71
2022/03/26 14:04:03;;;;;;;6.18;3.08;;;;;;;15.53;71.07;102743.81;6275170;28;20412;-71